Time;durP1;ratioP1;P1;durP2;ratioP2;P2;SDS_P1;SDS_P2;PMS_P1;PMS_P2;Temp;Humidity;BMP_temperature;BMP_pressure;BME280_temperature;BME280_humidity;BME280_pressure;Samples;Min_cycle;Max_cycle;Signal;HPM_P1;HPM_P2
2024/01/23 00:00:21;;;;;;;12.00;5.77;;;6.00;72.60;;;;;;6215172;28;20370;-80
2024/01/23 00:03:25;;;;;;;8.23;5.47;;;6.00;72.60;;;;;;6215214;28;20239;-80
2024/01/23 00:06:28;;;;;;;6.53;5.17;;;6.00;72.70;;;;;;6202586;28;20707;-80
2024/01/23 00:09:32;;;;;;;11.93;5.73;;;5.90;72.70;;;;;;6213782;28;20239;-80
2024/01/23 00:12:36;;;;;;;12.40;5.27;;;6.00;72.50;;;;;;6215125;28;20237;-77
2024/01/23 00:15:40;;;;;;;6.27;4.77;;;6.10;72.50;;;;;;6215604;28;20319;-79
2024/01/23 00:18:43;;;;;;;6.47;4.87;;;6.10;72.20;;;;;;6211320;28;20262;-80
2024/01/23 00:21:46;;;;;;;9.40;5.47;;;6.10;72.30;;;;;;6214535;28;20269;-80
2024/01/23 00:24:49;;;;;;;6.80;4.57;;;6.10;72.10;;;;;;6214262;28;20928;-78
2024/01/23 00:27:54;;;;;;;7.50;4.87;;;6.20;71.70;;;;;;6209907;28;20961;-78
2024/01/23 00:30:57;;;;;;;7.60;4.47;;;6.30;71.50;;;;;;6214151;28;20231;-80
2024/01/23 00:34:00;;;;;;;5.80;4.83;;;6.20;71.60;;;;;;6216099;28;20348;-80
2024/01/23 00:37:04;;;;;;;8.70;5.10;;;6.30;71.30;;;;;;6234194;28;20223;-81
2024/01/23 00:40:11;;;;;;;6.80;4.33;;;6.40;70.90;;;;;;6239586;28;20775;-80
2024/01/23 00:43:15;;;;;;;6.13;4.30;;;6.40;71.00;;;;;;6237500;28;20265;-81
2024/01/23 00:46:18;;;;;;;11.77;4.53;;;6.40;71.50;;;;;;6237222;28;20243;-79
2024/01/23 00:49:21;;;;;;;5.40;4.33;;;6.40;71.90;;;;;;6238085;28;20242;-79
2024/01/23 00:52:25;;;;;;;5.53;4.17;;;6.30;72.10;;;;;;6238048;28;20234;-79
2024/01/23 00:55:28;;;;;;;6.33;4.70;;;6.30;72.10;;;;;;6238368;28;20254;-79
2024/01/23 00:58:32;;;;;;;8.10;4.53;;;6.30;72.20;;;;;;6237447;28;20266;-78
2024/01/23 01:01:35;;;;;;;5.83;3.90;;;6.30;72.40;;;;;;6239044;28;20254;-80
2024/01/23 01:04:41;;;;;;;5.50;4.30;;;6.30;72.70;;;;;;6238203;28;20262;-78
2024/01/23 01:07:44;;;;;;;4.27;3.87;;;6.20;73.00;;;;;;6237128;28;20246;-80
2024/01/23 01:10:47;;;;;;;7.10;4.27;;;6.10;73.40;;;;;;6234725;28;20245;-79
2024/01/23 01:13:52;;;;;;;7.53;4.47;;;6.10;74.00;;;;;;6238342;28;20281;-81
2024/01/23 01:16:55;;;;;;;6.87;4.43;;;5.90;74.90;;;;;;6238162;28;20707;-79
2024/01/23 01:19:58;;;;;;;6.90;4.40;;;5.70;75.90;;;;;;6191518;28;20242;-80
2024/01/23 01:23:01;;;;;;;4.93;4.30;;;5.70;75.70;;;;;;6207245;28;20235;-80
2024/01/23 01:26:04;;;;;;;4.57;4.17;;;5.60;76.00;;;;;;6194554;28;20286;-80
2024/01/23 01:29:09;;;;;;;4.43;4.20;;;5.50;76.40;;;;;;6212412;28;20301;-80
2024/01/23 01:32:12;;;;;;;6.90;4.03;;;5.40;76.70;;;;;;6207636;28;20236;-79
2024/01/23 01:35:15;;;;;;;4.87;4.40;;;5.50;76.60;;;;;;6209699;28;20231;-79
2024/01/23 01:38:18;;;;;;;3.97;3.80;;;5.40;77.00;;;;;;6235955;28;20231;-79
2024/01/23 01:41:22;;;;;;;5.37;4.47;;;5.30;77.00;;;;;;6237320;28;20235;-81
2024/01/23 01:44:26;;;;;;;4.20;3.90;;;5.30;77.20;;;;;;6236437;28;20235;-82
2024/01/23 01:47:30;;;;;;;11.67;4.57;;;5.30;77.30;;;;;;6188494;28;20266;-80
2024/01/23 01:50:33;;;;;;;4.73;3.90;;;5.30;77.30;;;;;;6232007;28;20846;-79
2024/01/23 01:53:37;;;;;;;4.20;3.93;;;5.20;77.40;;;;;;6229021;28;20235;-79
2024/01/23 01:56:42;;;;;;;5.23;4.40;;;5.30;77.30;;;;;;6234948;28;20284;-80
2024/01/23 01:59:47;;;;;;;4.23;3.90;;;5.20;77.40;;;;;;6236880;28;20254;-80
2024/01/23 02:02:51;;;;;;;5.47;4.37;;;5.20;77.30;;;;;;6236550;28;20325;-81
2024/01/23 02:05:56;;;;;;;4.50;4.20;;;5.30;77.30;;;;;;6236547;28;20976;-80
2024/01/23 02:08:59;;;;;;;5.83;4.60;;;5.30;77.40;;;;;;6237644;28;20234;-79
2024/01/23 02:12:05;;;;;;;8.27;4.30;;;5.10;77.70;;;;;;6227624;28;20238;-80
2024/01/23 02:15:11;;;;;;;6.40;4.33;;;5.10;77.80;;;;;;6201997;28;20239;-79
2024/01/23 02:18:14;;;;;;;6.13;5.17;;;5.10;77.80;;;;;;6212049;28;20235;-79
2024/01/23 02:21:18;;;;;;;4.40;4.00;;;5.10;77.90;;;;;;6212107;28;20290;-83
2024/01/23 02:24:22;;;;;;;5.03;4.03;;;5.10;77.50;;;;;;6207383;28;20362;-79
2024/01/23 02:27:25;;;;;;;4.27;4.00;;;5.10;77.60;;;;;;6209805;28;20281;-80
2024/01/23 02:30:29;;;;;;;7.87;4.73;;;5.00;77.50;;;;;;6210660;28;20239;-79
2024/01/23 02:33:32;;;;;;;8.23;4.20;;;5.00;78.00;;;;;;6207085;28;20323;-78
2024/01/23 02:36:39;;;;;;;4.70;4.37;;;4.90;78.00;;;;;;6209973;28;20793;-80
2024/01/23 02:39:46;;;;;;;7.07;4.67;;;5.00;78.10;;;;;;6205102;28;20255;-78
2024/01/23 02:42:50;;;;;;;5.43;4.07;;;5.00;77.90;;;;;;6212287;28;20259;-80
2024/01/23 02:45:53;;;;;;;9.27;4.47;;;5.00;77.90;;;;;;6230050;28;20278;-78
2024/01/23 02:48:56;;;;;;;5.73;4.00;;;5.00;77.70;;;;;;6236088;28;20257;-81
2024/01/23 02:52:00;;;;;;;4.50;4.03;;;5.00;77.50;;;;;;6233468;28;20238;-80
2024/01/23 02:55:05;;;;;;;5.57;4.30;;;5.00;77.50;;;;;;6236150;28;20242;-78
2024/01/23 02:58:08;;;;;;;5.43;4.83;;;4.90;77.90;;;;;;6235914;28;20357;-79
2024/01/23 03:01:11;;;;;;;6.00;4.90;;;5.00;77.70;;;;;;6227693;28;20327;-80
2024/01/23 03:04:14;;;;;;;5.97;4.47;;;4.90;77.70;;;;;;6235659;28;20281;-78
2024/01/23 03:07:19;;;;;;;6.40;4.80;;;4.80;78.00;;;;;;6206109;28;20242;-78
2024/01/23 03:10:23;;;;;;;9.17;4.43;;;4.90;77.90;;;;;;6207488;28;20728;-77
2024/01/23 03:13:26;;;;;;;5.57;4.57;;;5.00;77.50;;;;;;6206306;28;20755;-80
2024/01/23 03:16:29;;;;;;;5.33;4.63;;;5.00;77.50;;;;;;6211739;28;20281;-79
2024/01/23 03:19:32;;;;;;;5.80;4.67;;;5.00;77.30;;;;;;6209824;28;20235;-81
2024/01/23 03:22:36;;;;;;;4.77;4.40;;;5.00;77.30;;;;;;6211394;28;20246;-79
2024/01/23 03:25:41;;;;;;;5.40;4.30;;;5.00;77.10;;;;;;6226954;28;20249;-79
2024/01/23 03:28:44;;;;;;;8.43;3.93;;;5.00;76.90;;;;;;6228620;28;20235;-78
2024/01/23 03:31:49;;;;;;;5.37;4.00;;;5.00;76.80;;;;;;6190234;28;20331;-78
2024/01/23 03:34:52;;;;;;;4.30;4.00;;;5.10;76.30;;;;;;6218009;28;20265;-80
2024/01/23 03:37:55;;;;;;;5.57;4.10;;;5.20;76.00;;;;;;6236480;28;20241;-81
2024/01/23 03:41:00;;;;;;;4.97;4.33;;;5.10;76.00;;;;;;6230233;28;20238;-81
2024/01/23 03:44:05;;;;;;;9.67;4.30;;;5.10;76.10;;;;;;6227906;28;20826;-80
2024/01/23 03:47:09;;;;;;;4.87;4.43;;;5.10;76.10;;;;;;6231694;28;20452;-80
2024/01/23 03:50:12;;;;;;;4.67;4.10;;;5.10;76.10;;;;;;6203992;28;20311;-80
2024/01/23 03:53:15;;;;;;;5.10;4.60;;;5.10;76.00;;;;;;6182848;28;20296;-78
2024/01/23 03:56:20;;;;;;;5.57;4.77;;;5.10;76.10;;;;;;6208077;28;20730;-80
2024/01/23 03:59:23;;;;;;;6.73;3.80;;;5.00;76.20;;;;;;6212087;28;20235;-79
2024/01/23 04:02:27;;;;;;;4.97;4.03;;;5.10;76.00;;;;;;6211470;28;20855;-80
2024/01/23 04:05:30;;;;;;;9.17;4.47;;;5.10;75.80;;;;;;6218572;28;20250;-80
2024/01/23 04:08:33;;;;;;;5.37;4.87;;;5.00;75.80;;;;;;6227562;28;20262;-80
2024/01/23 04:11:42;;;;;;;7.70;3.87;;;5.10;75.70;;;;;;6205742;28;20321;-79
2024/01/23 04:14:45;;;;;;;5.70;4.27;;;5.00;75.90;;;;;;6224083;28;20259;-79
2024/01/23 04:17:48;;;;;;;5.20;4.70;;;5.00;76.10;;;;;;6212435;28;20235;-77
2024/01/23 04:20:52;;;;;;;4.40;4.00;;;5.00;76.20;;;;;;6224898;28;20234;-79
2024/01/23 04:23:56;;;;;;;4.83;4.33;;;5.00;76.20;;;;;;6211228;28;20250;-79
2024/01/23 04:27:01;;;;;;;4.80;4.27;;;5.00;76.10;;;;;;6222187;28;20242;-78
2024/01/23 04:30:04;;;;;;;7.90;4.70;;;5.00;76.20;;;;;;6231319;28;20246;-81
2024/01/23 04:33:07;;;;;;;7.07;3.93;;;5.00;76.00;;;;;;6232414;28;20243;-79
2024/01/23 04:36:11;;;;;;;7.17;4.67;;;5.00;76.00;;;;;;6232561;28;20803;-80
2024/01/23 04:39:15;;;;;;;4.17;3.87;;;5.10;75.90;;;;;;6241663;28;20234;-80
2024/01/23 04:42:21;;;;;;;6.10;4.10;;;5.10;76.00;;;;;;6250870;28;20234;-77
2024/01/23 04:45:24;;;;;;;7.77;4.03;;;5.10;76.50;;;;;;6222297;28;20235;-79
2024/01/23 04:48:27;;;;;;;7.30;3.97;;;5.10;76.60;;;;;;6220229;28;20823;-79
2024/01/23 04:51:31;;;;;;;5.17;3.80;;;5.10;76.40;;;;;;6222799;28;20250;-79
2024/01/23 04:54:34;;;;;;;4.07;3.83;;;5.10;76.30;;;;;;6216763;28;20243;-79
2024/01/23 04:57:38;;;;;;;4.30;3.90;;;5.00;76.30;;;;;;6217896;28;20810;-80
2024/01/23 05:00:45;;;;;;;6.03;4.00;;;5.10;76.10;;;;;;6216766;28;20276;-79
2024/01/23 05:03:50;;;;;;;5.10;4.23;;;5.10;76.10;;;;;;6211651;28;20228;-80
2024/01/23 05:06:53;;;;;;;4.23;3.80;;;5.10;75.90;;;;;;6211251;28;20236;-81
2024/01/23 05:09:57;;;;;;;9.47;4.27;;;5.10;76.10;;;;;;6214485;28;20240;-79
2024/01/23 05:13:01;;;;;;;5.33;4.10;;;5.10;76.20;;;;;;6215418;28;20261;-81
2024/01/23 05:16:05;;;;;;;6.53;4.00;;;5.10;76.20;;;;;;6201423;28;20416;-79
2024/01/23 05:19:08;;;;;;;7.20;4.20;;;5.00;76.50;;;;;;6228300;28;20261;-81
2024/01/23 05:22:12;;;;;;;7.67;4.60;;;5.00;76.50;;;;;;6203772;28;20285;-80
2024/01/23 05:25:16;;;;;;;7.63;4.80;;;5.00;76.80;;;;;;6205479;28;20327;-80
2024/01/23 05:28:22;;;;;;;7.33;4.87;;;4.90;77.10;;;;;;6203918;28;20247;-80
2024/01/23 05:31:25;;;;;;;6.43;4.30;;;4.90;77.10;;;;;;6239260;28;20377;-81
2024/01/23 05:34:28;;;;;;;6.17;4.40;;;4.80;77.30;;;;;;6223046;28;20269;-79
2024/01/23 05:37:31;;;;;;;7.70;3.97;;;4.80;77.20;;;;;;6237202;28;20261;-78
2024/01/23 05:40:34;;;;;;;7.70;4.50;;;4.70;77.30;;;;;;6246344;28;20226;-80
2024/01/23 05:43:39;;;;;;;8.43;4.63;;;4.70;77.60;;;;;;6243979;28;20241;-80
2024/01/23 05:46:42;;;;;;;4.90;4.20;;;4.60;77.80;;;;;;6243052;28;20640;-81
2024/01/23 05:49:45;;;;;;;4.67;3.77;;;4.60;77.70;;;;;;6240025;28;20234;-80
2024/01/23 05:52:48;;;;;;;10.63;4.47;;;4.50;77.80;;;;;;6234352;28;20231;-80
2024/01/23 05:55:51;;;;;;;4.57;4.13;;;4.50;77.70;;;;;;6237841;28;20246;-77
2024/01/23 05:58:55;;;;;;;4.47;4.07;;;4.60;77.60;;;;;;6240537;28;20284;-77
2024/01/23 06:01:58;;;;;;;6.07;4.57;;;4.50;77.40;;;;;;6240795;28;20250;-79
2024/01/23 06:05:03;;;;;;;7.87;4.47;;;4.50;77.60;;;;;;6237257;28;20770;-78
2024/01/23 06:08:07;;;;;;;4.50;4.20;;;4.50;77.50;;;;;;6245424;28;20310;-77
2024/01/23 06:11:10;;;;;;;4.00;3.60;;;4.50;77.50;;;;;;6237158;28;20227;-79
2024/01/23 06:14:15;;;;;;;6.97;4.03;;;4.40;77.60;;;;;;6240165;28;20227;-78
2024/01/23 06:17:18;;;;;;;3.90;3.60;;;4.50;77.70;;;;;;6237152;28;20321;-79
2024/01/23 06:20:21;;;;;;;7.77;4.27;;;4.50;77.70;;;;;;6241122;28;20242;-77
2024/01/23 06:23:24;;;;;;;4.53;4.20;;;4.40;77.80;;;;;;6236399;28;20256;-79
2024/01/23 06:26:28;;;;;;;8.20;4.30;;;4.50;77.70;;;;;;6237334;28;20234;-77
2024/01/23 06:29:32;;;;;;;7.83;4.27;;;4.50;77.60;;;;;;6234136;28;20238;-77
2024/01/23 06:32:36;;;;;;;10.00;4.40;;;4.70;77.30;;;;;;6230779;28;20268;-77
2024/01/23 06:35:40;;;;;;;8.50;4.33;;;4.70;77.00;;;;;;6201418;28;20231;-76
2024/01/23 06:38:43;;;;;;;7.93;4.43;;;4.70;77.20;;;;;;6219115;28;20239;-77
2024/01/23 06:41:49;;;;;;;7.17;4.40;;;4.70;77.20;;;;;;6231472;28;20239;-76
2024/01/23 06:44:56;;;;;;;11.87;4.63;;;4.90;77.00;;;;;;6218871;28;20727;-77
2024/01/23 06:47:59;;;;;;;7.30;4.97;;;4.80;77.00;;;;;;6224793;28;20246;-76
2024/01/23 06:51:03;;;;;;;7.10;4.30;;;4.90;76.70;;;;;;6229713;28;20230;-76
2024/01/23 06:54:07;;;;;;;7.43;4.60;;;4.90;76.90;;;;;;6228969;28;20238;-74
2024/01/23 06:57:11;;;;;;;6.60;4.70;;;4.90;77.00;;;;;;6227908;28;20242;-77
2024/01/23 07:00:17;;;;;;;10.50;5.03;;;4.90;77.00;;;;;;6228151;28;20316;-76
2024/01/23 07:03:20;;;;;;;12.00;4.97;;;4.90;76.90;;;;;;6229855;28;20942;-75
2024/01/23 07:06:24;;;;;;;9.27;5.27;;;4.90;77.00;;;;;;6227049;28;20239;-77
2024/01/23 07:09:27;;;;;;;12.27;4.90;;;4.90;76.60;;;;;;6230364;28;20325;-78
2024/01/23 07:12:31;;;;;;;8.67;4.50;;;5.00;76.50;;;;;;6231779;28;20841;-75
2024/01/23 07:15:35;;;;;;;10.27;4.83;;;5.10;76.00;;;;;;6231471;28;20246;-77
2024/01/23 07:18:38;;;;;;;9.47;4.40;;;5.10;75.70;;;;;;6230826;28;21415;-78
2024/01/23 07:21:42;;;;;;;9.37;4.67;;;5.10;75.20;;;;;;6228422;28;20242;-77
2024/01/23 07:24:45;;;;;;;8.37;4.37;;;5.10;74.80;;;;;;6229078;28;20243;-78
2024/01/23 07:27:48;;;;;;;10.47;5.10;;;5.30;74.60;;;;;;6240533;28;20712;-78
2024/01/23 07:30:53;;;;;;;15.00;4.80;;;5.30;74.20;;;;;;6215407;28;20277;-80
2024/01/23 07:33:56;;;;;;;8.77;4.70;;;5.30;73.90;;;;;;6219837;28;20243;-80
2024/01/23 07:37:00;;;;;;;11.50;5.17;;;5.40;73.60;;;;;;6228664;28;20242;-78
2024/01/23 07:40:03;;;;;;;6.60;4.87;;;5.50;73.50;;;;;;6227350;28;20848;-80
2024/01/23 07:43:07;;;;;;;10.30;4.80;;;5.50;73.30;;;;;;6230123;28;20230;-81
2024/01/23 07:46:12;;;;;;;11.30;5.30;;;5.50;73.00;;;;;;6232430;28;20249;-80
2024/01/23 07:49:16;;;;;;;7.60;5.10;;;5.50;72.80;;;;;;6232508;28;20243;-80
2024/01/23 07:52:21;;;;;;;10.80;4.80;;;5.50;72.60;;;;;;6231482;28;20234;-79
2024/01/23 07:55:24;;;;;;;11.23;4.83;;;5.60;72.50;;;;;;6232132;28;20238;-78
2024/01/23 07:58:27;;;;;;;9.67;4.90;;;5.60;72.10;;;;;;6232862;28;20238;-79
2024/01/23 08:01:32;;;;;;;11.93;4.77;;;5.70;72.10;;;;;;6231314;28;20238;-80
2024/01/23 08:04:35;;;;;;;9.63;5.43;;;5.70;71.90;;;;;;6233140;28;20242;-81
2024/01/23 08:07:41;;;;;;;15.17;5.23;;;5.70;72.00;;;;;;6231601;28;20339;-79
2024/01/23 08:10:45;;;;;;;6.33;4.80;;;5.70;71.80;;;;;;6232981;28;20828;-77
2024/01/23 08:13:48;;;;;;;12.70;5.40;;;5.70;71.80;;;;;;6232811;28;21632;-78
2024/01/23 08:16:53;;;;;;;11.17;5.50;;;5.70;71.70;;;;;;6233743;28;20250;-81
2024/01/23 08:19:56;;;;;;;15.37;5.60;;;5.60;72.20;;;;;;6246478;28;20238;-79
2024/01/23 08:22:59;;;;;;;11.90;5.27;;;5.70;72.20;;;;;;6245111;28;20230;-77
2024/01/23 08:26:03;;;;;;;11.23;4.93;;;5.70;71.80;;;;;;6237488;28;20332;-76
2024/01/23 08:29:10;;;;;;;8.70;5.00;;;5.80;71.80;;;;;;6250341;28;20238;-76
2024/01/23 08:32:15;;;;;;;13.97;5.40;;;5.80;71.60;;;;;;6237363;28;20768;-76
2024/01/23 08:35:18;;;;;;;14.37;5.20;;;5.80;71.70;;;;;;6246368;28;20242;-76
2024/01/23 08:38:21;;;;;;;12.00;5.23;;;5.90;71.40;;;;;;6244201;28;20234;-77
2024/01/23 08:41:24;;;;;;;13.27;5.33;;;5.90;71.40;;;;;;6243783;28;21114;-79
2024/01/23 08:44:27;;;;;;;10.43;5.20;;;5.90;71.10;;;;;;6246329;28;20230;-77
2024/01/23 08:47:32;;;;;;;8.53;5.23;;;6.00;70.70;;;;;;6246583;28;20998;-76
2024/01/23 08:50:35;;;;;;;10.47;5.17;;;6.00;70.90;;;;;;6239455;28;20238;-77
2024/01/23 08:53:38;;;;;;;13.47;5.30;;;6.10;70.60;;;;;;6244887;28;20234;-80
2024/01/23 08:56:41;;;;;;;16.20;6.10;;;6.10;70.60;;;;;;6243839;28;20237;-77
2024/01/23 08:59:45;;;;;;;18.57;5.30;;;6.10;70.50;;;;;;6242169;28;21046;-77
2024/01/23 09:02:50;;;;;;;9.57;4.90;;;6.00;70.70;;;;;;6244523;28;20837;-77
2024/01/23 09:05:54;;;;;;;12.57;5.10;;;6.10;70.50;;;;;;6244630;28;20245;-77
2024/01/23 09:08:57;;;;;;;11.50;5.20;;;6.10;70.40;;;;;;6207744;28;20239;-77
2024/01/23 09:12:01;;;;;;;14.93;5.97;;;6.20;70.40;;;;;;6208257;28;20246;-78
2024/01/23 09:15:05;;;;;;;16.73;5.73;;;6.30;70.10;;;;;;6206673;28;20247;-75
2024/01/23 09:18:10;;;;;;;8.03;5.17;;;6.30;70.00;;;;;;6197753;28;20242;-78
2024/01/23 09:21:14;;;;;;;10.90;6.13;;;6.40;69.80;;;;;;6209027;28;20935;-76
2024/01/23 09:24:17;;;;;;;15.73;4.53;;;6.40;69.50;;;;;;6207055;28;21051;-80
2024/01/23 09:27:20;;;;;;;14.70;5.10;;;6.40;69.60;;;;;;6210286;28;20246;-78
2024/01/23 09:30:24;;;;;;;9.50;4.93;;;6.50;69.30;;;;;;6207251;28;20243;-76
2024/01/23 09:33:32;;;;;;;12.10;5.63;;;6.50;69.30;;;;;;6206661;28;20248;-76
2024/01/23 09:36:35;;;;;;;10.13;5.07;;;6.40;69.30;;;;;;6208920;28;20235;-76
2024/01/23 09:39:38;;;;;;;11.13;4.60;;;6.50;69.30;;;;;;6206474;28;20240;-75
2024/01/23 09:42:42;;;;;;;12.27;4.57;;;6.50;69.30;;;;;;6207669;28;21088;-75
2024/01/23 09:45:48;;;;;;;9.03;4.73;;;6.40;69.70;;;;;;6207792;28;20240;-77
2024/01/23 09:48:53;;;;;;;11.63;5.17;;;6.40;69.50;;;;;;6203390;28;20408;-77
2024/01/23 09:51:59;;;;;;;13.60;5.53;;;6.60;69.30;;;;;;6203014;28;20239;-76
2024/01/23 09:55:02;;;;;;;11.80;4.83;;;6.60;69.20;;;;;;6203956;28;20402;-78
2024/01/23 09:58:07;;;;;;;13.23;5.23;;;6.60;69.00;;;;;;6203725;28;20242;-77
2024/01/23 10:01:12;;;;;;;9.03;5.10;;;6.60;69.10;;;;;;6228286;28;20238;-76
2024/01/23 10:04:18;;;;;;;13.97;5.50;;;6.70;69.00;;;;;;6229892;28;20239;-78
2024/01/23 10:07:21;;;;;;;9.73;5.00;;;6.70;69.10;;;;;;6228805;28;20253;-77
2024/01/23 10:10:25;;;;;;;15.37;5.00;;;6.70;68.70;;;;;;6232538;28;20234;-76
2024/01/23 10:13:28;;;;;;;16.40;4.93;;;6.80;68.70;;;;;;6230711;28;20718;-78
2024/01/23 10:16:31;;;;;;;7.63;4.17;;;6.80;68.70;;;;;;6231169;28;20636;-75
2024/01/23 10:19:38;;;;;;;9.47;4.90;;;6.80;68.80;;;;;;6229755;28;20753;-78
2024/01/23 10:22:41;;;;;;;8.00;4.87;;;6.80;68.30;;;;;;6226497;28;20414;-79
2024/01/23 10:25:44;;;;;;;11.43;5.47;;;6.90;68.40;;;;;;6229178;28;20320;-77
2024/01/23 10:28:47;;;;;;;12.47;5.07;;;6.90;68.30;;;;;;6227100;28;20305;-77
2024/01/23 10:31:50;;;;;;;11.23;4.90;;;6.90;68.40;;;;;;6228609;28;20319;-76
2024/01/23 10:34:55;;;;;;;10.83;5.17;;;7.00;68.30;;;;;;6220021;28;20904;-76
2024/01/23 10:37:58;;;;;;;12.87;4.77;;;7.00;68.10;;;;;;6230232;28;20246;-76
2024/01/23 10:41:03;;;;;;;16.27;4.80;;;7.00;68.20;;;;;;6230127;28;20325;-76
2024/01/23 10:44:08;;;;;;;16.00;5.23;;;7.00;68.20;;;;;;6230350;28;20369;-76
2024/01/23 10:47:12;;;;;;;12.77;5.40;;;7.00;68.10;;;;;;6230025;28;20243;-77
2024/01/23 10:50:17;;;;;;;10.30;4.90;;;7.00;68.20;;;;;;6228361;28;20727;-76
2024/01/23 10:53:22;;;;;;;11.80;5.40;;;7.00;68.20;;;;;;6230845;28;20253;-77
2024/01/23 10:56:29;;;;;;;13.17;5.53;;;7.00;68.30;;;;;;6231306;28;20242;-77
2024/01/23 10:59:32;;;;;;;13.27;4.83;;;7.00;68.40;;;;;;6231100;28;21001;-77
2024/01/23 11:02:39;;;;;;;11.63;4.93;;;7.20;68.30;;;;;;6227794;28;20246;-76
2024/01/23 11:05:53;;;;;;;13.87;6.50;;;7.20;68.40;;;;;;6228704;28;20242;-79
2024/01/23 11:09:12;;;;;;;15.97;6.00;;;7.20;68.20;;;;;;6202300;28;20328;-77
2024/01/23 11:12:22;;;;;;;12.27;6.30;;;7.20;68.50;;;;;;6228386;28;20239;-79
2024/01/23 11:15:26;;;;;;;13.30;5.03;;;7.20;68.70;;;;;;6226773;28;20333;-78
2024/01/23 11:18:32;;;;;;;16.03;6.00;;;7.20;68.60;;;;;;6228685;28;20245;-77
2024/01/23 11:21:55;;;;;;;21.53;5.40;;;7.10;68.80;;;;;;6225755;28;20320;-77
2024/01/23 11:25:04;;;;;;;10.90;5.27;;;7.10;68.90;;;;;;6227924;28;21021;-79
2024/01/23 11:28:11;;;;;;;12.90;5.13;;;7.10;69.60;;;;;;6227515;28;21497;-78
2024/01/23 11:31:16;;;;;;;10.20;4.87;;;7.20;69.80;;;;;;6221613;28;20394;-79
2024/01/23 11:34:39;;;;;;;14.40;5.60;;;7.20;69.70;;;;;;6228697;28;20653;-78
2024/01/23 11:37:54;;;;;;;13.67;5.37;;;7.20;69.30;;;;;;6231233;28;20323;-77
2024/01/23 11:40:59;;;;;;;19.17;6.00;;;7.20;69.70;;;;;;6225559;28;20336;-77
2024/01/23 11:44:06;;;;;;;14.30;5.03;;;7.30;69.50;;;;;;6225446;28;20272;-76
2024/01/23 11:47:10;;;;;;;13.93;5.47;;;7.40;69.10;;;;;;6226465;28;20238;-76
2024/01/23 11:50:13;;;;;;;13.70;5.50;;;7.50;68.40;;;;;;6224028;28;20400;-78
2024/01/23 11:53:21;;;;;;;10.43;4.77;;;7.50;68.50;;;;;;6230432;28;25496;-79
2024/01/23 11:56:25;;;;;;;13.33;5.13;;;7.60;68.30;;;;;;6227363;28;21100;-79
2024/01/23 11:59:28;;;;;;;15.00;5.00;;;7.60;68.30;;;;;;6226827;28;20242;-77
2024/01/23 12:02:32;;;;;;;16.43;5.07;;;7.60;67.50;;;;;;6229461;28;20238;-77
2024/01/23 12:05:37;;;;;;;15.07;5.33;;;7.60;67.50;;;;;;6215137;28;20445;-77
2024/01/23 12:08:42;;;;;;;15.60;5.63;;;7.60;67.60;;;;;;6219480;28;20777;-79
2024/01/23 12:11:47;;;;;;;11.20;4.97;;;7.50;67.70;;;;;;6216089;28;20316;-77
2024/01/23 12:14:50;;;;;;;17.00;5.47;;;7.50;67.50;;;;;;6215012;28;20239;-77
2024/01/23 12:17:53;;;;;;;15.10;5.17;;;7.50;67.20;;;;;;6216558;28;21275;-79
2024/01/23 12:20:57;;;;;;;13.47;6.00;;;7.40;67.20;;;;;;6215180;28;20301;-78
2024/01/23 12:24:02;;;;;;;14.40;5.87;;;7.50;66.80;;;;;;6213405;28;20234;-77
2024/01/23 12:27:20;;;;;;;14.47;5.50;;;7.50;66.90;;;;;;6228979;28;20246;-77
2024/01/23 12:30:35;;;;;;;13.50;5.80;;;7.50;66.60;;;;;;6239425;28;20246;-78
2024/01/23 12:33:41;;;;;;;16.33;5.87;;;7.50;66.90;;;;;;6205558;28;21176;-78
2024/01/23 12:36:50;;;;;;;17.10;6.03;;;7.50;66.50;;;;;;6210010;28;20859;-76
2024/01/23 12:39:55;;;;;;;14.93;5.60;;;7.50;66.90;;;;;;6208458;28;20363;-78
2024/01/23 12:42:59;;;;;;;14.63;5.63;;;7.60;66.40;;;;;;6207797;28;20243;-79
2024/01/23 12:46:02;;;;;;;17.13;6.27;;;7.70;66.10;;;;;;6199413;28;20242;-76
2024/01/23 12:49:06;;;;;;;18.77;5.73;;;7.60;66.00;;;;;;6215869;28;20243;-79
2024/01/23 12:52:16;;;;;;;12.07;5.40;;;7.60;66.00;;;;;;6226012;28;20239;-77
2024/01/23 12:55:21;;;;;;;16.57;6.23;;;7.70;65.50;;;;;;6229550;28;20258;-77
2024/01/23 12:58:24;;;;;;;16.53;5.57;;;7.70;65.70;;;;;;6231041;28;20369;-77
2024/01/23 13:01:28;;;;;;;18.00;5.90;;;7.70;65.70;;;;;;6233825;28;20247;-80
2024/01/23 13:04:31;;;;;;;14.37;5.83;;;7.80;65.40;;;;;;6230658;28;21050;-76
2024/01/23 13:07:35;;;;;;;18.07;5.73;;;7.70;65.20;;;;;;6229924;28;20283;-78
2024/01/23 13:10:40;;;;;;;11.13;6.43;;;7.70;65.20;;;;;;6229145;28;20723;-79
2024/01/23 13:13:44;;;;;;;9.67;4.83;;;7.70;65.10;;;;;;6231256;28;20273;-77
2024/01/23 13:16:47;;;;;;;16.27;6.23;;;7.80;65.10;;;;;;6232227;28;20792;-77
2024/01/23 13:19:50;;;;;;;17.50;6.43;;;7.80;65.10;;;;;;6230445;28;20238;-77
2024/01/23 13:22:53;;;;;;;14.87;6.13;;;7.80;64.30;;;;;;6230001;28;20245;-80
2024/01/23 13:25:58;;;;;;;12.70;5.67;;;7.80;64.50;;;;;;6220088;28;20335;-78
2024/01/23 13:29:01;;;;;;;17.30;5.57;;;7.70;64.50;;;;;;6233512;28;20238;-78
2024/01/23 13:32:07;;;;;;;16.83;5.53;;;7.70;64.70;;;;;;6231258;28;20243;-79
2024/01/23 13:35:10;;;;;;;16.37;6.03;;;7.70;64.30;;;;;;6230451;28;20328;-77
2024/01/23 13:38:13;;;;;;;17.73;5.70;;;7.80;63.90;;;;;;6232274;28;20241;-79
2024/01/23 13:41:17;;;;;;;19.17;7.03;;;7.80;63.50;;;;;;6233405;28;20278;-76
2024/01/23 13:44:21;;;;;;;15.47;5.60;;;7.80;63.40;;;;;;6230643;28;20238;-79
2024/01/23 13:47:24;;;;;;;15.63;6.13;;;7.80;63.70;;;;;;6230619;28;20247;-77
2024/01/23 13:50:32;;;;;;;18.43;6.00;;;7.80;64.00;;;;;;6229758;28;20310;-76
2024/01/23 13:53:35;;;;;;;17.10;5.53;;;7.60;64.70;;;;;;6222013;28;20309;-76
2024/01/23 13:56:40;;;;;;;17.90;5.87;;;7.70;65.00;;;;;;6229293;28;20258;-77
2024/01/23 13:59:43;;;;;;;12.83;5.50;;;7.70;65.40;;;;;;6229253;28;20300;-78
2024/01/23 14:02:47;;;;;;;17.37;5.30;;;7.70;65.60;;;;;;6231741;28;20238;-77
2024/01/23 14:05:50;;;;;;;11.17;5.60;;;7.70;65.30;;;;;;6229444;28;20764;-77
2024/01/23 14:08:54;;;;;;;17.93;6.27;;;7.70;65.20;;;;;;6227728;28;20769;-77
2024/01/23 14:11:58;;;;;;;14.60;5.67;;;7.70;65.40;;;;;;6232284;28;20239;-79
2024/01/23 14:15:01;;;;;;;12.47;5.83;;;7.70;65.30;;;;;;6224546;28;20919;-78
2024/01/23 14:18:05;;;;;;;14.40;5.37;;;7.80;64.80;;;;;;6230358;28;20246;-79
2024/01/23 14:21:11;;;;;;;16.97;6.03;;;7.70;64.70;;;;;;6230844;28;20239;-77
2024/01/23 14:24:17;;;;;;;11.60;5.87;;;7.60;64.90;;;;;;6207527;28;20265;-76
2024/01/23 14:27:21;;;;;;;13.13;5.20;;;7.70;64.70;;;;;;6232244;28;20243;-78
2024/01/23 14:30:26;;;;;;;17.17;6.17;;;7.80;64.30;;;;;;6231719;28;20247;-77
2024/01/23 14:33:29;;;;;;;12.83;5.10;;;7.70;63.90;;;;;;6228227;28;20590;-78
2024/01/23 14:36:34;;;;;;;9.83;5.20;;;7.60;64.00;;;;;;6226468;28;20246;-76
2024/01/23 14:39:38;;;;;;;18.67;5.97;;;7.60;64.10;;;;;;6229917;28;20601;-79
2024/01/23 14:42:44;;;;;;;19.27;6.23;;;7.60;64.00;;;;;;6226947;28;20325;-77
2024/01/23 14:45:48;;;;;;;10.37;5.60;;;7.60;63.70;;;;;;6227727;28;20243;-76
2024/01/23 14:48:52;;;;;;;14.60;5.80;;;7.60;63.70;;;;;;6225435;28;20235;-79
2024/01/23 14:51:55;;;;;;;17.03;5.70;;;7.60;63.70;;;;;;6226267;28;20249;-78
2024/01/23 14:54:59;;;;;;;13.37;5.47;;;7.60;63.80;;;;;;6228732;28;20862;-79
2024/01/23 14:58:04;;;;;;;15.77;5.27;;;7.50;64.00;;;;;;6226185;28;20274;-78
2024/01/23 15:01:07;;;;;;;15.50;6.77;;;7.50;64.10;;;;;;6227113;28;20242;-77
2024/01/23 15:04:11;;;;;;;16.97;5.80;;;7.50;64.30;;;;;;6228919;28;20235;-77
2024/01/23 15:07:15;;;;;;;13.63;5.80;;;7.40;64.50;;;;;;6228165;28;20277;-78
2024/01/23 15:10:18;;;;;;;13.67;6.07;;;7.40;64.60;;;;;;6233528;28;20242;-78
2024/01/23 15:13:23;;;;;;;14.53;5.70;;;7.30;64.90;;;;;;6228254;28;20355;-77
2024/01/23 15:16:26;;;;;;;16.27;5.70;;;7.30;65.10;;;;;;6227749;28;20243;-76
2024/01/23 15:19:29;;;;;;;17.20;6.27;;;7.20;65.20;;;;;;6228148;28;20781;-77
2024/01/23 15:22:32;;;;;;;13.00;5.63;;;7.20;65.50;;;;;;6228774;28;20292;-77
2024/01/23 15:25:36;;;;;;;13.80;6.30;;;7.20;65.70;;;;;;6228810;28;20670;-76
2024/01/23 15:28:40;;;;;;;20.27;5.73;;;7.20;65.60;;;;;;6229140;28;20330;-76
2024/01/23 15:31:44;;;;;;;11.43;5.53;;;7.20;65.30;;;;;;6226738;28;20246;-79
2024/01/23 15:34:47;;;;;;;15.40;5.90;;;7.20;65.10;;;;;;6230060;28;20253;-76
2024/01/23 15:37:51;;;;;;;16.90;5.13;;;7.20;64.60;;;;;;6230708;28;20237;-77
2024/01/23 15:40:57;;;;;;;21.63;6.90;;;7.20;64.40;;;;;;6229692;28;20329;-75
2024/01/23 15:44:02;;;;;;;11.67;5.17;;;7.20;64.40;;;;;;6226152;28;20745;-77
2024/01/23 15:47:06;;;;;;;16.03;5.60;;;7.20;64.50;;;;;;6227901;28;20239;-78
2024/01/23 15:50:09;;;;;;;12.90;6.07;;;7.10;64.50;;;;;;6227080;28;20234;-77
2024/01/23 15:53:13;;;;;;;16.13;5.80;;;7.00;64.70;;;;;;6227464;28;20284;-79
2024/01/23 15:56:16;;;;;;;11.70;5.63;;;7.00;65.00;;;;;;6227349;28;20778;-78
2024/01/23 15:59:21;;;;;;;17.83;5.37;;;7.00;64.90;;;;;;6225469;28;20239;-77
2024/01/23 16:02:25;;;;;;;17.10;6.40;;;7.00;65.00;;;;;;6228321;28;20662;-78
2024/01/23 16:05:29;;;;;;;14.03;5.50;;;6.90;65.30;;;;;;6209361;28;20246;-78